Kempton Park, United Kingdom
Current Conditions -  °F | °C
As of 2:50 PM on Friday 19 Dec 2014 (Local Time) from EGLL Reporting Station
Scattered Clouds Scattered Clouds  
Wind Chill: 42°   Ceiling: Unl
Heat Index: 48°   Visibility: 6mi
Dew Point: 37°   Wind: 15mph
Humidity: 66%   Direction: 270°W
Pressure: 30.03"   Gusts: NA
Location:  51.42°N, 0.39°W
Report Text: EGLL 191450Z 27013KT 9999 SCT039 09/03 Q1017 NOSIG
Loading
Personal Weather Stations






























Interactive Weather Map New forecast layout! Learn more

10-Day Weather Forecast

Advertisements
Track Severe Weather on mobile